SBOSBO EAS / LESO
Speedbird OnlineSpeedbird Online EAS / LESO

San Sebastian Airport
21:23 14.9°C

Location San Sebastian, Spain
Latitude: 43.35649871826172
Longitude: -1.7906099557876587
Local Time 21:23 on 20 Apr 2024
UTC +2 hours (Europe/Madrid)
Currency £1 equals EUR 1.16
METAR LESO 201900Z 25003KT 190V320 9999 FEW030 15/09 Q1020
TAF TAF LESO 201700Z 2018/2118 36009KT 9999 FEW030 TX15/2114Z TN06/2106Z PROB30 TEMPO 2018/2021 23010KT PROB30 TEMPO 2021/2104 08010KT
Weather As Of 20 Apr 2024 21:23
Description Few clouds
Wind 6 km/h from West (250°)
Cloud Cover 20%
Precipitation Rain: none, Snow: none
Sunrise 07:16
Sunset 20:55
NOTAM 29 active NOTAM
Rotations During the last 90 days there were
18 flights from LCY
19 flights to LCY
Web Airport Website | Wikipedia
Codes IATA: EAS
ICAO: LESO
Altitude 5 Meter / 16 Feet
Distance 917 KM / 570 Miles
from London.
Runways
RunwayLength (m)Surface
041457Asphalt
221457Asphalt
Radio
TypeDescriptionFrequency
TWRSAN SEBASTIAN TOWER119.85
Live ATC



Support Speedbird Online

© 2017-2024 Speedbird Online